Time;durP1;ratioP1;P1;durP2;ratioP2;P2;SDS_P1;SDS_P2;PMS_P1;PMS_P2;Temp;Humidity;BMP_temperature;BMP_pressure;BME280_temperature;BME280_humidity;BME280_pressure;Samples;Min_cycle;Max_cycle;Signal;HPM_P1;HPM_P2
2023/09/22 00:00:10;;;;;;;2.05;0.70;;;17.70;99.90;;;;;;5039322;28;20049;-80
2023/09/22 00:02:37;;;;;;;4.78;0.68;;;17.70;99.90;;;;;;5049464;28;20045;-80
2023/09/22 00:05:06;;;;;;;0.50;0.40;;;17.70;99.90;;;;;;5051711;28;20115;-81
2023/09/22 00:07:33;;;;;;;3.53;0.50;;;17.70;99.90;;;;;;5047721;28;20041;-80
2023/09/22 00:10:00;;;;;;;1.52;0.40;;;17.70;99.90;;;;;;5047692;28;20059;-81
2023/09/22 00:12:29;;;;;;;2.38;0.73;;;17.70;99.90;;;;;;5049645;28;20041;-81
2023/09/22 00:15:00;;;;;;;0.60;0.50;;;17.70;99.90;;;;;;5024885;28;20096;-80
2023/09/22 00:17:32;;;;;;;1.40;0.60;;;17.70;99.90;;;;;;5048025;28;20052;-80
2023/09/22 00:19:59;;;;;;;1.10;0.50;;;17.60;99.90;;;;;;5056717;28;20132;-80
2023/09/22 00:22:25;;;;;;;0.90;0.68;;;17.60;99.90;;;;;;5043111;28;20073;-80
2023/09/22 00:24:52;;;;;;;0.73;0.57;;;17.60;99.90;;;;;;5052156;28;20042;-81
2023/09/22 00:27:19;;;;;;;1.25;0.55;;;17.60;99.90;;;;;;5048057;28;20057;-81
2023/09/22 00:29:46;;;;;;;2.33;0.60;;;17.50;99.90;;;;;;5044763;28;20041;-80
2023/09/22 00:32:13;;;;;;;1.08;0.63;;;17.50;99.90;;;;;;5056739;28;20040;-79
2023/09/22 00:34:40;;;;;;;0.85;0.60;;;17.50;99.90;;;;;;5054868;28;20044;-80
2023/09/22 00:37:07;;;;;;;1.58;0.40;;;17.50;99.90;;;;;;5056865;28;20074;-80
2023/09/22 00:39:34;;;;;;;0.75;0.50;;;17.50;99.90;;;;;;5048578;28;20528;-81
2023/09/22 00:42:05;;;;;;;0.60;0.47;;;17.50;99.90;;;;;;5036884;28;20049;-80
2023/09/22 00:44:32;;;;;;;1.23;0.57;;;17.50;99.90;;;;;;5047230;28;20042;-80
2023/09/22 00:47:00;;;;;;;0.70;0.50;;;17.50;99.90;;;;;;5061134;28;20041;-81
2023/09/22 00:49:27;;;;;;;1.27;0.50;;;17.50;99.90;;;;;;5056420;28;20042;-80
2023/09/22 00:51:54;;;;;;;1.92;0.70;;;17.50;99.90;;;;;;5054626;28;20049;-81
2023/09/22 00:54:21;;;;;;;2.20;0.50;;;17.50;99.90;;;;;;5046442;28;20065;-80
2023/09/22 00:56:48;;;;;;;2.70;0.70;;;17.50;99.90;;;;;;5033971;28;20090;-80
2023/09/22 00:59:15;;;;;;;2.90;0.50;;;17.50;99.90;;;;;;5050163;28;20441;-80
2023/09/22 01:01:43;;;;;;;1.73;0.70;;;17.50;99.90;;;;;;5054381;28;20045;-80
2023/09/22 01:04:11;;;;;;;0.95;0.80;;;17.40;99.90;;;;;;5034986;28;20045;-81
2023/09/22 01:06:39;;;;;;;0.82;0.63;;;17.40;99.90;;;;;;5052595;28;20042;-81
2023/09/22 01:09:06;;;;;;;1.25;0.82;;;17.40;99.90;;;;;;5047973;28;20581;-80
2023/09/22 01:11:34;;;;;;;1.42;0.60;;;17.40;99.90;;;;;;5033995;28;20091;-80
2023/09/22 01:14:02;;;;;;;0.68;0.60;;;17.40;99.90;;;;;;5025598;28;20045;-81
2023/09/22 01:16:29;;;;;;;1.50;0.60;;;17.40;99.90;;;;;;5051967;28;20049;-80
2023/09/22 01:18:57;;;;;;;1.30;0.60;;;17.40;99.90;;;;;;5036442;28;20045;-81
2023/09/22 01:21:29;;;;;;;1.10;0.63;;;17.40;99.90;;;;;;5041652;28;20046;-80
2023/09/22 01:23:56;;;;;;;1.38;0.52;;;17.40;99.90;;;;;;5049302;28;20238;-81
2023/09/22 01:26:22;;;;;;;2.58;0.60;;;17.40;99.90;;;;;;5032094;28;20045;-80
2023/09/22 01:28:49;;;;;;;1.02;0.70;;;17.40;99.90;;;;;;5027037;28;20045;-80
2023/09/22 01:31:16;;;;;;;1.10;0.60;;;17.40;99.90;;;;;;5058055;28;20091;-81
2023/09/22 01:33:45;;;;;;;0.50;0.50;;;17.40;99.90;;;;;;5051230;28;20060;-80
2023/09/22 01:36:13;;;;;;;0.93;0.55;;;17.40;99.90;;;;;;5047490;28;20101;-80
2023/09/22 01:38:41;;;;;;;1.95;0.60;;;17.40;99.90;;;;;;5039489;28;20508;-80
2023/09/22 01:41:08;;;;;;;1.02;0.50;;;17.40;99.90;;;;;;5038804;28;20049;-81
2023/09/22 01:43:35;;;;;;;0.90;0.60;;;17.40;99.90;;;;;;5052166;28;20438;-81
2023/09/22 01:46:02;;;;;;;1.23;0.70;;;17.50;99.90;;;;;;5063989;28;20052;-80
2023/09/22 01:48:29;;;;;;;2.15;0.57;;;17.50;99.90;;;;;;5044040;28;20472;-80
2023/09/22 01:51:00;;;;;;;0.90;0.73;;;17.50;99.90;;;;;;5049633;28;20572;-80
2023/09/22 01:53:27;;;;;;;0.68;0.47;;;18.00;99.90;;;;;;5045313;28;20111;-80
2023/09/22 01:55:54;;;;;;;1.23;0.50;;;17.50;99.90;;;;;;5030528;28;20049;-80
2023/09/22 01:58:20;;;;;;;0.80;0.40;;;17.50;99.90;;;;;;5051796;28;20424;-80
2023/09/22 02:00:51;;;;;;;0.70;0.50;;;17.50;99.90;;;;;;5053448;28;20049;-80
2023/09/22 02:03:18;;;;;;;1.48;0.65;;;17.50;99.90;;;;;;5035602;28;20462;-80
2023/09/22 02:05:45;;;;;;;0.30;0.30;;;18.70;99.90;;;;;;5045879;28;20045;-80
2023/09/22 02:08:12;;;;;;;1.60;0.60;;;17.60;99.90;;;;;;5037095;28;20048;-80
2023/09/22 02:10:39;;;;;;;1.55;0.60;;;17.60;99.90;;;;;;5047522;28;20076;-80
2023/09/22 02:13:08;;;;;;;0.85;0.55;;;17.50;99.90;;;;;;5048979;28;20105;-80
2023/09/22 02:15:36;;;;;;;1.20;0.40;;;17.50;99.90;;;;;;5049948;28;20049;-80
2023/09/22 02:18:04;;;;;;;1.75;0.70;;;17.50;99.90;;;;;;5047489;28;20424;-80
2023/09/22 02:20:31;;;;;;;1.05;0.57;;;17.50;99.90;;;;;;5037047;28;20559;-80
2023/09/22 02:22:58;;;;;;;0.93;0.43;;;17.50;99.90;;;;;;5021789;28;20107;-80
2023/09/22 02:25:25;;;;;;;1.05;0.38;;;17.40;99.90;;;;;;5043479;28;20445;-79
2023/09/22 02:27:54;;;;;;;1.80;0.60;;;17.40;99.90;;;;;;5030266;28;20060;-80
2023/09/22 02:30:22;;;;;;;0.73;0.63;;;17.40;99.90;;;;;;5032895;28;20048;-80
2023/09/22 02:32:50;;;;;;;2.63;0.80;;;17.30;99.90;;;;;;5025589;28;20041;-80
2023/09/22 02:35:18;;;;;;;0.98;0.50;;;17.40;99.90;;;;;;5047377;28;20044;-80
2023/09/22 02:37:45;;;;;;;0.65;0.55;;;17.40;99.90;;;;;;5038648;28;20053;-80
2023/09/22 02:40:15;;;;;;;1.67;0.73;;;17.40;99.90;;;;;;5028748;28;20049;-80
2023/09/22 02:42:45;;;;;;;2.05;0.50;;;17.30;99.90;;;;;;5048607;28;20045;-79
2023/09/22 02:45:12;;;;;;;1.17;0.50;;;17.30;99.90;;;;;;5032680;28;20059;-80
2023/09/22 02:47:41;;;;;;;1.38;0.60;;;17.10;99.90;;;;;;5024667;28;20595;-80
2023/09/22 02:50:10;;;;;;;1.20;0.50;;;17.10;99.90;;;;;;5028402;28;20041;-80
2023/09/22 02:52:38;;;;;;;0.98;0.57;;;17.10;99.90;;;;;;5038073;28;20431;-80
2023/09/22 02:55:11;;;;;;;3.42;0.50;;;17.10;99.90;;;;;;5039870;28;20049;-80
2023/09/22 02:57:38;;;;;;;0.82;0.70;;;17.50;99.90;;;;;;5033066;28;20053;-80
2023/09/22 03:00:18;;;;;;;1.85;0.65;;;17.00;99.90;;;;;;5050019;28;20156;-80
2023/09/22 03:02:46;;;;;;;0.50;0.50;;;17.10;99.90;;;;;;5039892;28;20515;-80
2023/09/22 03:05:16;;;;;;;0.80;0.50;;;17.10;99.90;;;;;;5048399;28;20071;-80
2023/09/22 03:07:46;;;;;;;0.77;0.50;;;17.10;99.90;;;;;;5036994;28;20057;-80
2023/09/22 03:10:13;;;;;;;3.17;0.50;;;17.10;99.90;;;;;;5052750;28;20911;-80
2023/09/22 03:12:40;;;;;;;0.80;0.40;;;17.10;99.90;;;;;;5046449;28;20076;-80
2023/09/22 03:15:12;;;;;;;1.42;0.47;;;17.10;99.90;;;;;;5044175;28;20057;-81
2023/09/22 03:17:39;;;;;;;0.70;0.50;;;17.10;99.90;;;;;;5043754;28;20049;-80
2023/09/22 03:20:07;;;;;;;0.70;0.60;;;17.20;99.90;;;;;;5046842;28;20053;-80
2023/09/22 03:22:35;;;;;;;0.55;0.40;;;17.20;99.90;;;;;;5035703;28;20081;-80
2023/09/22 03:25:03;;;;;;;1.13;1.02;;;16.90;99.90;;;;;;5050482;28;20056;-79
2023/09/22 03:27:34;;;;;;;1.52;0.60;;;17.20;99.90;;;;;;5046355;28;20045;-80
2023/09/22 03:30:06;;;;;;;1.90;0.70;;;17.20;99.90;;;;;;5037735;28;20041;-80
2023/09/22 03:32:33;;;;;;;1.65;0.60;;;17.10;99.90;;;;;;5037588;28;20041;-80
2023/09/22 03:35:07;;;;;;;1.55;0.80;;;17.20;99.90;;;;;;5027427;28;20133;-80
2023/09/22 03:37:37;;;;;;;1.38;0.50;;;17.20;99.90;;;;;;5024019;28;20048;-80
2023/09/22 03:40:14;;;;;;;1.23;0.70;;;17.20;99.90;;;;;;5051688;28;20048;-80
2023/09/22 03:42:46;;;;;;;2.22;0.52;;;17.20;99.90;;;;;;5031181;28;20046;-79
2023/09/22 03:45:12;;;;;;;2.15;0.40;;;17.20;99.90;;;;;;5048193;28;20548;-80
2023/09/22 03:47:40;;;;;;;1.30;0.50;;;17.20;99.90;;;;;;5040224;28;20042;-80
2023/09/22 03:50:08;;;;;;;0.50;0.50;;;17.20;99.90;;;;;;5047450;28;20057;-80
2023/09/22 03:52:36;;;;;;;0.57;0.38;;;17.20;99.90;;;;;;5048177;28;20060;-80
2023/09/22 03:55:03;;;;;;;1.17;0.52;;;17.20;99.90;;;;;;5050565;28;20045;-80
2023/09/22 03:57:30;;;;;;;0.77;0.63;;;17.20;99.90;;;;;;5048608;28;20044;-80
2023/09/22 03:59:57;;;;;;;3.15;0.70;;;17.20;99.90;;;;;;5051947;28;20037;-80
2023/09/22 04:02:27;;;;;;;1.63;0.80;;;17.20;99.90;;;;;;5042627;28;20132;-80
2023/09/22 04:04:54;;;;;;;1.23;0.60;;;17.20;99.90;;;;;;5034113;28;20489;-80
2023/09/22 04:07:21;;;;;;;0.70;0.43;;;17.20;99.90;;;;;;5054039;28;20083;-80
2023/09/22 04:09:47;;;;;;;1.08;0.68;;;17.30;99.90;;;;;;5057270;28;20045;-81
2023/09/22 04:12:14;;;;;;;3.13;0.70;;;17.20;99.90;;;;;;5036162;28;20069;-80
2023/09/22 04:14:41;;;;;;;1.20;0.55;;;17.20;99.90;;;;;;5034831;28;20046;-80
2023/09/22 04:17:09;;;;;;;1.20;0.50;;;17.20;99.90;;;;;;5045544;28;20095;-80
2023/09/22 04:19:37;;;;;;;3.33;0.68;;;17.30;99.90;;;;;;5053510;28;20099;-80
2023/09/22 04:22:06;;;;;;;2.60;0.55;;;17.30;99.90;;;;;;5038678;28;20049;-80
2023/09/22 04:24:34;;;;;;;1.77;0.70;;;17.30;99.90;;;;;;5054691;28;20044;-80
2023/09/22 04:27:05;;;;;;;1.45;0.50;;;17.30;99.90;;;;;;5032370;28;20554;-81
2023/09/22 04:29:35;;;;;;;3.58;0.50;;;17.30;99.90;;;;;;5053180;28;20088;-81
2023/09/22 04:32:04;;;;;;;1.42;0.70;;;17.30;99.90;;;;;;5046559;28;20056;-80
2023/09/22 04:34:32;;;;;;;5.85;2.17;;;17.30;99.90;;;;;;5035023;28;20064;-81
2023/09/22 04:37:02;;;;;;;1.15;0.63;;;17.30;99.90;;;;;;5038420;28;20531;-81
2023/09/22 04:39:31;;;;;;;0.98;0.50;;;17.20;99.90;;;;;;5050039;28;20114;-80
2023/09/22 04:41:59;;;;;;;2.85;0.73;;;17.20;99.90;;;;;;5034936;28;20049;-80
2023/09/22 04:44:26;;;;;;;1.20;0.50;;;17.30;99.90;;;;;;5034352;28;20393;-80
2023/09/22 04:46:52;;;;;;;0.85;0.50;;;17.30;99.90;;;;;;5038818;28;20075;-80
2023/09/22 04:49:19;;;;;;;0.98;0.73;;;17.20;99.90;;;;;;5062588;28;20063;-80
2023/09/22 04:51:46;;;;;;;2.58;0.60;;;17.20;99.90;;;;;;5057511;28;20046;-81
2023/09/22 04:54:13;;;;;;;0.95;0.60;;;17.20;99.90;;;;;;5054039;28;20049;-81
2023/09/22 04:56:39;;;;;;;1.83;0.68;;;17.20;99.90;;;;;;5050868;28;20111;-80
2023/09/22 04:59:07;;;;;;;1.38;0.50;;;17.20;99.90;;;;;;5051106;28;20091;-81
2023/09/22 05:01:34;;;;;;;2.10;1.13;;;17.20;99.90;;;;;;5041808;28;20489;-81
2023/09/22 05:04:01;;;;;;;3.20;0.60;;;17.20;99.90;;;;;;5053240;28;20052;-81
2023/09/22 05:06:27;;;;;;;3.60;0.80;;;17.10;99.90;;;;;;5052206;28;20048;-80
2023/09/22 05:08:55;;;;;;;0.98;0.70;;;17.10;99.90;;;;;;5052819;28;20053;-81
2023/09/22 05:11:22;;;;;;;3.03;0.52;;;17.10;99.90;;;;;;5048610;28;20059;-81
2023/09/22 05:13:49;;;;;;;1.60;0.40;;;17.00;99.90;;;;;;5034910;28;20058;-80
2023/09/22 05:16:18;;;;;;;4.70;1.13;;;17.10;99.90;;;;;;5044106;28;20045;-80
2023/09/22 05:18:45;;;;;;;0.93;0.45;;;17.00;99.90;;;;;;5056390;28;20117;-81
2023/09/22 05:21:13;;;;;;;0.45;0.43;;;17.00;99.90;;;;;;5035714;28;20057;-80
2023/09/22 05:23:39;;;;;;;1.23;0.75;;;17.00;99.90;;;;;;5052084;28;20067;-80
2023/09/22 05:26:07;;;;;;;1.42;0.57;;;17.00;99.90;;;;;;5045191;28;20045;-81
2023/09/22 05:28:34;;;;;;;3.38;0.60;;;16.90;99.90;;;;;;5048726;28;20467;-80
2023/09/22 05:31:03;;;;;;;1.27;0.60;;;16.90;99.90;;;;;;5050993;28;20106;-81
2023/09/22 05:33:35;;;;;;;1.27;0.60;;;16.90;99.90;;;;;;5044503;28;20129;-80
2023/09/22 05:36:03;;;;;;;3.47;0.82;;;16.90;99.90;;;;;;5050952;28;20053;-80
2023/09/22 05:38:29;;;;;;;3.80;0.65;;;16.70;99.90;;;;;;5030857;28;20051;-80
2023/09/22 05:40:56;;;;;;;1.20;0.50;;;16.70;99.90;;;;;;5039010;28;20757;-80
2023/09/22 05:43:23;;;;;;;4.28;0.80;;;16.70;99.90;;;;;;5055472;28;20054;-81
2023/09/22 05:45:56;;;;;;;5.10;1.40;;;16.60;99.90;;;;;;5041706;28;20124;-81
2023/09/22 05:48:23;;;;;;;1.70;0.50;;;16.60;99.90;;;;;;5056941;28;20060;-82
2023/09/22 05:50:57;;;;;;;4.47;1.13;;;16.40;99.90;;;;;;5048472;28;20050;-82
2023/09/22 05:53:25;;;;;;;3.97;1.10;;;17.10;99.90;;;;;;5052530;28;20568;-82
2023/09/22 05:56:09;;;;;;;3.00;0.68;;;16.60;99.90;;;;;;5042304;28;20123;-80
2023/09/22 05:58:40;;;;;;;5.93;0.80;;;16.60;99.90;;;;;;5047566;28;20048;-82
2023/09/22 06:01:12;;;;;;;1.55;0.77;;;16.60;99.90;;;;;;5050521;28;20052;-82
2023/09/22 06:03:41;;;;;;;2.20;0.60;;;16.60;99.90;;;;;;5053061;28;20051;-82
2023/09/22 06:06:12;;;;;;;4.43;0.60;;;16.70;99.90;;;;;;5049038;28;20044;-82
2023/09/22 06:08:41;;;;;;;2.55;0.90;;;16.60;99.90;;;;;;5049096;28;20044;-82
2023/09/22 06:11:09;;;;;;;2.08;0.70;;;16.60;99.90;;;;;;5037713;28;20045;-82
2023/09/22 06:13:37;;;;;;;3.13;0.75;;;16.70;99.90;;;;;;5048159;28;20056;-82
2023/09/22 06:16:04;;;;;;;1.40;0.60;;;16.70;99.90;;;;;;5052993;28;20513;-80
2023/09/22 06:18:32;;;;;;;3.13;0.80;;;16.70;99.90;;;;;;5054282;28;20052;-80
2023/09/22 06:21:00;;;;;;;2.50;0.80;;;16.70;99.90;;;;;;5047566;28;20071;-81
2023/09/22 06:23:27;;;;;;;1.55;0.82;;;16.70;99.90;;;;;;5033290;28;20049;-81
2023/09/22 06:26:04;;;;;;;1.85;0.60;;;16.70;99.90;;;;;;5040081;28;20037;-80
2023/09/22 06:28:32;;;;;;;2.78;0.93;;;16.70;99.90;;;;;;5052121;28;20059;-80
2023/09/22 06:31:03;;;;;;;1.63;0.60;;;16.70;99.90;;;;;;5054558;28;20049;-81
2023/09/22 06:33:31;;;;;;;3.58;0.80;;;16.80;99.90;;;;;;5054546;28;20051;-81
2023/09/22 06:36:03;;;;;;;2.85;0.80;;;16.70;99.90;;;;;;5028294;28;20052;-80
2023/09/22 06:38:34;;;;;;;2.55;0.70;;;;;;;;;;5032624;28;20055;-81
2023/09/22 06:41:04;;;;;;;1.65;0.70;;;16.80;99.90;;;;;;5039996;28;20052;-81
2023/09/22 06:43:33;;;;;;;1.95;0.93;;;16.70;99.90;;;;;;5050562;28;20083;-81
2023/09/22 06:46:03;;;;;;;3.28;1.17;;;16.80;99.90;;;;;;5051649;28;20045;-81
2023/09/22 06:48:32;;;;;;;3.97;0.90;;;16.80;99.90;;;;;;5049721;28;20036;-81
2023/09/22 06:50:59;;;;;;;1.35;0.70;;;16.80;99.90;;;;;;5045589;28;20056;-81
2023/09/22 06:53:28;;;;;;;2.22;0.88;;;16.80;99.90;;;;;;5049110;28;20053;-81
2023/09/22 06:56:03;;;;;;;2.17;0.68;;;16.70;99.90;;;;;;5043595;28;20044;-81
2023/09/22 06:58:30;;;;;;;0.60;0.60;;;16.80;99.90;;;;;;5036424;28;20508;-82
2023/09/22 07:01:07;;;;;;;2.92;0.65;;;16.80;99.90;;;;;;5052166;28;20045;-81
2023/09/22 07:03:34;;;;;;;3.63;0.80;;;16.90;99.90;;;;;;5050260;28;20434;-81
2023/09/22 07:06:01;;;;;;;1.30;0.73;;;16.80;99.90;;;;;;5049475;28;20053;-81
2023/09/22 07:08:29;;;;;;;1.38;0.63;;;16.80;99.90;;;;;;5049584;28;20424;-80
2023/09/22 07:11:03;;;;;;;0.63;0.60;;;16.80;99.90;;;;;;5049256;28;20110;-81
2023/09/22 07:13:30;;;;;;;1.42;0.60;;;16.90;99.90;;;;;;5039335;28;20046;-81
2023/09/22 07:15:57;;;;;;;1.48;0.55;;;16.90;99.90;;;;;;5051804;28;20679;-81
2023/09/22 07:18:25;;;;;;;3.47;0.90;;;16.90;99.90;;;;;;5049612;28;20049;-82
2023/09/22 07:20:56;;;;;;;2.20;0.63;;;16.90;99.90;;;;;;5027907;28;20045;-81
2023/09/22 07:23:23;;;;;;;;;;;16.90;99.90;;;;;;5046967;28;20046;-81
2023/09/22 07:26:03;;;;;;;2.10;0.82;;;16.90;99.90;;;;;;5043781;28;19920;-82
2023/09/22 07:28:31;;;;;;;2.70;0.68;;;16.90;99.90;;;;;;5058150;28;20579;-81
2023/09/22 07:30:58;;;;;;;1.85;0.70;;;17.00;99.90;;;;;;5055600;28;20060;-82
2023/09/22 07:33:32;;;;;;;1.42;0.55;;;17.00;99.90;;;;;;5052893;28;20132;-81
2023/09/22 07:35:59;;;;;;;1.35;0.73;;;17.00;99.90;;;;;;5031720;28;20113;-82
2023/09/22 07:38:27;;;;;;;1.92;0.55;;;17.10;99.90;;;;;;5031253;28;20508;-81
2023/09/22 07:40:54;;;;;;;1.77;0.90;;;17.10;99.90;;;;;;5047798;28;20049;-81
2023/09/22 07:43:21;;;;;;;2.50;1.10;;;17.20;99.90;;;;;;5056170;28;20055;-81
2023/09/22 07:45:48;;;;;;;0.65;0.65;;;17.30;99.90;;;;;;5054083;28;20499;-82
2023/09/22 07:48:16;;;;;;;1.08;0.60;;;17.40;99.90;;;;;;5048727;28;20616;-81
2023/09/22 07:50:42;;;;;;;1.52;0.90;;;17.30;99.90;;;;;;5052159;28;20525;-82
2023/09/22 07:53:09;;;;;;;0.70;0.60;;;17.40;99.90;;;;;;5039311;28;20049;-82
2023/09/22 07:55:38;;;;;;;1.02;0.40;;;17.50;99.90;;;;;;5054410;28;20048;-82
2023/09/22 07:58:06;;;;;;;1.33;0.52;;;17.50;99.90;;;;;;5056201;28;20054;-82
2023/09/22 08:00:34;;;;;;;1.85;0.57;;;17.50;99.90;;;;;;5056026;28;20059;-82
2023/09/22 08:03:01;;;;;;;0.80;0.57;;;17.50;99.90;;;;;;5029970;28;20049;-82
2023/09/22 08:05:28;;;;;;;3.30;0.60;;;17.60;99.90;;;;;;5032547;28;20087;-81
2023/09/22 08:07:58;;;;;;;1.30;0.60;;;17.60;99.90;;;;;;5049218;28;20528;-82
2023/09/22 08:10:25;;;;;;;1.65;0.60;;;17.60;99.90;;;;;;5057343;28;20049;-82
2023/09/22 08:12:53;;;;;;;1.27;0.65;;;;;;;;;;5052241;28;20585;-82
2023/09/22 08:15:21;;;;;;;1.77;0.75;;;17.90;99.90;;;;;;5052126;28;20113;-81
2023/09/22 08:17:49;;;;;;;2.92;0.90;;;17.90;99.90;;;;;;5048977;28;20045;-82
2023/09/22 08:20:17;;;;;;;2.72;0.95;;;18.00;99.90;;;;;;5041607;28;20071;-81
2023/09/22 08:22:47;;;;;;;3.92;0.60;;;18.00;99.90;;;;;;5031519;28;20128;-82
2023/09/22 08:25:14;;;;;;;1.40;0.70;;;18.10;99.90;;;;;;5056615;28;20049;-82
2023/09/22 08:27:41;;;;;;;2.17;0.80;;;18.10;99.90;;;;;;5055110;28;20040;-82
2023/09/22 08:30:13;;;;;;;1.55;0.57;;;18.10;99.90;;;;;;5055958;28;20096;-81
2023/09/22 08:32:43;;;;;;;1.20;0.68;;;18.10;99.90;;;;;;5053120;28;20044;-81
2023/09/22 08:35:11;;;;;;;2.88;0.80;;;18.10;99.90;;;;;;5042890;28;20072;-82
2023/09/22 08:37:42;;;;;;;4.03;0.90;;;18.20;99.90;;;;;;5033709;28;20059;-82
2023/09/22 08:40:11;;;;;;;2.85;0.70;;;18.30;99.90;;;;;;5056025;28;20188;-82
2023/09/22 08:42:38;;;;;;;5.70;0.70;;;18.30;99.90;;;;;;5053840;28;20048;-81
2023/09/22 08:45:07;;;;;;;1.65;0.60;;;18.30;99.90;;;;;;5050604;28;20053;-82
2023/09/22 08:47:39;;;;;;;2.00;0.60;;;18.20;99.90;;;;;;5049086;28;20049;-81
2023/09/22 08:50:11;;;;;;;2.30;0.80;;;18.20;99.90;;;;;;5046078;28;20042;-81
2023/09/22 08:52:43;;;;;;;5.57;0.80;;;18.10;99.90;;;;;;5053205;28;20099;-82
2023/09/22 08:55:14;;;;;;;4.95;0.57;;;18.10;99.90;;;;;;5052093;28;20049;-82
2023/09/22 08:57:44;;;;;;;4.10;0.82;;;18.20;99.90;;;;;;5052191;28;20049;-81
2023/09/22 09:00:23;;;;;;;2.72;0.75;;;18.20;99.90;;;;;;5032824;28;20060;-81
2023/09/22 09:02:51;;;;;;;3.53;0.70;;;18.20;99.90;;;;;;5044759;28;20088;-82
2023/09/22 09:05:23;;;;;;;6.40;1.25;;;18.10;99.90;;;;;;5045229;28;20045;-81
2023/09/22 09:07:51;;;;;;;1.35;0.47;;;18.20;99.90;;;;;;5052201;28;20041;-81
2023/09/22 09:10:26;;;;;;;2.90;0.80;;;18.00;99.90;;;;;;5053895;28;20148;-82
2023/09/22 09:12:54;;;;;;;4.03;0.80;;;18.00;99.90;;;;;;5045827;28;20041;-81
2023/09/22 09:15:27;;;;;;;2.78;0.90;;;17.90;99.90;;;;;;5050735;28;20083;-82
2023/09/22 09:18:03;;;;;;;3.58;0.90;;;17.90;99.90;;;;;;5041495;28;20057;-81
2023/09/22 09:20:34;;;;;;;2.97;0.80;;;17.90;99.90;;;;;;5048175;28;20049;-81
2023/09/22 09:23:31;;;;;;;8.15;1.13;;;17.90;99.90;;;;;;5053748;28;20049;-81
2023/09/22 09:25:57;;;;;;;2.97;1.00;;;17.90;99.90;;;;;;5036304;28;20087;-81
2023/09/22 09:28:24;;;;;;;4.47;0.98;;;17.90;99.90;;;;;;5046101;28;20497;-81
2023/09/22 09:30:57;;;;;;;4.07;0.60;;;17.90;99.90;;;;;;5049343;28;20075;-82
2023/09/22 09:33:25;;;;;;;2.78;0.98;;;18.00;99.90;;;;;;5037173;28;20083;-82
2023/09/22 09:35:54;;;;;;;4.80;0.70;;;18.10;99.90;;;;;;5040937;28;20040;-81
2023/09/22 09:38:27;;;;;;;4.68;0.82;;;18.10;99.90;;;;;;5052177;28;20045;-81
2023/09/22 09:40:55;;;;;;;2.47;0.70;;;18.20;99.90;;;;;;5048875;28;20045;-81
2023/09/22 09:43:22;;;;;;;3.15;0.98;;;18.20;99.90;;;;;;5044677;28;20045;-82
2023/09/22 09:45:59;;;;;;;3.15;0.88;;;18.30;99.90;;;;;;5051863;28;20045;-82
2023/09/22 09:48:26;;;;;;;2.70;0.85;;;18.40;99.90;;;;;;5038752;28;20057;-81
2023/09/22 09:50:57;;;;;;;2.53;0.75;;;18.40;99.90;;;;;;5055253;28;20044;-82
2023/09/22 09:53:37;;;;;;;3.92;1.02;;;18.50;99.90;;;;;;5050946;28;20045;-81
2023/09/22 09:56:05;;;;;;;7.80;1.00;;;18.60;99.90;;;;;;5048382;28;20059;-82
2023/09/22 09:58:35;;;;;;;6.15;0.88;;;18.60;99.90;;;;;;5038602;28;20463;-82
2023/09/22 10:01:07;;;;;;;3.90;1.10;;;18.70;99.90;;;;;;5031727;28;20045;-81
2023/09/22 10:03:39;;;;;;;2.78;0.93;;;18.80;99.90;;;;;;5050039;28;20499;-82
2023/09/22 10:06:12;;;;;;;4.93;0.85;;;18.80;99.90;;;;;;5053269;28;20045;-81
2023/09/22 10:08:39;;;;;;;6.32;0.80;;;18.70;99.90;;;;;;5053663;28;20049;-82
2023/09/22 10:11:09;;;;;;;3.63;0.95;;;18.90;99.90;;;;;;5044681;28;20417;-82
2023/09/22 10:13:36;;;;;;;6.70;1.00;;;18.90;99.90;;;;;;5029958;28;20049;-82
2023/09/22 10:16:08;;;;;;;4.07;0.90;;;19.00;99.90;;;;;;5047712;28;20054;-81
2023/09/22 10:18:55;;;;;;;9.75;1.10;;;19.00;99.90;;;;;;5049964;28;20076;-82
2023/09/22 10:21:39;;;;;;;6.05;0.80;;;19.10;99.90;;;;;;5038543;28;20055;-82
2023/09/22 10:24:26;;;;;;;3.35;0.85;;;19.20;99.90;;;;;;5048723;28;20053;-81
2023/09/22 10:26:55;;;;;;;4.25;0.80;;;19.30;99.90;;;;;;5042347;28;20072;-81
2023/09/22 10:29:35;;;;;;;3.83;1.15;;;19.40;99.90;;;;;;5049128;28;20499;-82
2023/09/22 10:32:35;;;;;;;6.95;1.30;;;19.40;99.90;;;;;;5049015;28;20045;-82
2023/09/22 10:35:05;;;;;;;7.75;1.17;;;19.50;99.90;;;;;;5055217;28;20058;-82
2023/09/22 10:37:35;;;;;;;4.82;1.25;;;19.60;99.90;;;;;;5030530;28;20053;-81
2023/09/22 10:40:14;;;;;;;4.30;0.95;;;19.50;99.90;;;;;;5050104;28;20060;-82
2023/09/22 10:42:52;;;;;;;3.72;0.90;;;19.60;99.90;;;;;;5042161;28;20060;-82
2023/09/22 10:45:25;;;;;;;3.20;0.80;;;19.50;99.90;;;;;;5048473;28;20045;-82
2023/09/22 10:47:52;;;;;;;5.13;1.27;;;19.50;99.90;;;;;;5040054;28;20072;-83
2023/09/22 10:50:32;;;;;;;5.40;1.05;;;19.50;99.90;;;;;;5048664;28;20041;-82
2023/09/22 10:53:07;;;;;;;3.83;1.15;;;19.50;99.90;;;;;;5048103;28;20045;-81
2023/09/22 10:55:40;;;;;;;3.42;1.10;;;19.50;99.90;;;;;;5049548;28;20056;-82
2023/09/22 10:58:16;;;;;;;5.47;1.30;;;19.50;99.90;;;;;;5042647;28;20060;-81
2023/09/22 11:01:08;;;;;;;3.90;0.90;;;19.50;99.90;;;;;;5057079;28;20045;-81
2023/09/22 11:03:35;;;;;;;5.10;1.15;;;19.50;99.90;;;;;;5053720;28;20424;-82
2023/09/22 11:06:06;;;;;;;6.50;0.88;;;19.60;99.90;;;;;;5047965;28;20480;-81
2023/09/22 11:08:34;;;;;;;4.80;1.00;;;19.50;99.90;;;;;;5049604;28;20076;-81
2023/09/22 11:11:01;;;;;;;5.68;1.23;;;19.60;99.90;;;;;;5045420;28;20072;-81
2023/09/22 11:13:28;;;;;;;3.47;0.90;;;19.60;99.90;;;;;;5044164;28;20045;-82
2023/09/22 11:16:02;;;;;;;4.55;0.90;;;19.60;99.90;;;;;;5038400;28;20165;-81
2023/09/22 11:18:32;;;;;;;2.92;0.80;;;19.60;99.90;;;;;;5035013;28;20050;-82
2023/09/22 11:21:05;;;;;;;;;;;19.70;99.90;;;;;;5040456;28;20045;-82
2023/09/22 11:23:35;;;;;;;2.70;0.65;;;19.70;99.90;;;;;;5033079;28;19927;-81
2023/09/22 11:26:10;;;;;;;4.03;1.00;;;19.80;99.90;;;;;;5043654;28;20046;-82
2023/09/22 11:28:42;;;;;;;10.48;1.10;;;19.80;99.90;;;;;;5045895;28;20052;-82
2023/09/22 11:31:13;;;;;;;3.45;0.85;;;19.90;99.90;;;;;;5051057;28;20508;-82
2023/09/22 11:33:40;;;;;;;;;;;20.00;99.90;;;;;;5040985;28;20463;-82
2023/09/22 11:36:08;;;;;;;5.00;0.60;;;20.10;99.90;;;;;;5045494;28;19944;-83
2023/09/22 11:38:39;;;;;;;4.15;0.93;;;20.20;99.90;;;;;;5038821;28;20052;-82
2023/09/22 11:41:16;;;;;;;4.63;1.23;;;20.30;99.90;;;;;;5046102;28;20113;-82
2023/09/22 11:43:44;;;;;;;3.35;1.02;;;20.40;99.90;;;;;;5049888;28;20094;-82
2023/09/22 11:46:15;;;;;;;3.22;1.15;;;20.50;99.90;;;;;;5051788;28;20071;-82
2023/09/22 11:48:52;;;;;;;;;;;20.50;99.90;;;;;;5052793;28;20060;-82
2023/09/22 11:51:19;;;;;;;7.97;1.00;;;20.50;99.90;;;;;;5043359;28;20011;-82
2023/09/22 11:53:47;;;;;;;8.60;1.30;;;20.50;99.90;;;;;;5046762;28;20054;-82
2023/09/22 11:56:14;;;;;;;4.15;0.68;;;20.50;99.90;;;;;;5041205;28;20471;-82
2023/09/22 11:58:41;;;;;;;3.00;1.02;;;20.50;99.90;;;;;;5046216;28;20196;-82
2023/09/22 12:01:09;;;;;;;2.55;0.80;;;20.50;99.90;;;;;;5049948;28;20057;-81
2023/09/22 12:03:36;;;;;;;13.38;1.20;;;20.40;99.90;;;;;;5049604;28;20132;-81
2023/09/22 12:06:03;;;;;;;4.20;1.60;;;20.40;99.90;;;;;;5043399;28;20132;-81
2023/09/22 12:08:31;;;;;;;6.97;1.85;;;20.30;99.90;;;;;;5050095;28;20416;-82
2023/09/22 12:11:00;;;;;;;6.07;0.90;;;20.30;99.90;;;;;;5026040;28;20068;-82
2023/09/22 12:13:27;;;;;;;5.18;0.90;;;20.20;99.90;;;;;;5042014;28;20527;-81
2023/09/22 12:15:54;;;;;;;2.47;0.68;;;20.20;99.90;;;;;;5054563;28;20094;-79
2023/09/22 12:18:21;;;;;;;3.80;1.40;;;20.10;99.90;;;;;;5051230;28;20084;-81
2023/09/22 12:20:48;;;;;;;2.70;0.90;;;20.10;99.90;;;;;;5040861;28;20057;-81
2023/09/22 12:23:15;;;;;;;4.13;0.90;;;20.10;99.90;;;;;;5032864;28;20053;-82
2023/09/22 12:25:42;;;;;;;2.92;0.80;;;20.00;99.90;;;;;;5047861;28;20493;-82
2023/09/22 12:28:08;;;;;;;3.00;0.82;;;20.00;99.90;;;;;;5058264;28;20060;-81
2023/09/22 12:30:35;;;;;;;2.55;0.90;;;19.90;99.90;;;;;;5051469;28;20467;-82
2023/09/22 12:33:02;;;;;;;5.30;0.90;;;19.90;99.90;;;;;;5054058;28;20060;-82
2023/09/22 12:35:29;;;;;;;3.03;1.02;;;19.90;99.90;;;;;;5045868;28;20045;-81
2023/09/22 12:37:56;;;;;;;3.75;0.70;;;19.90;99.90;;;;;;5035705;28;20131;-82
2023/09/22 12:40:23;;;;;;;2.00;0.80;;;19.90;99.90;;;;;;5051049;28;20102;-81
2023/09/22 12:42:49;;;;;;;3.60;1.08;;;19.90;99.90;;;;;;5058613;28;20053;-81
2023/09/22 12:45:16;;;;;;;3.67;0.80;;;20.00;99.90;;;;;;5050102;28;20046;-82
2023/09/22 12:47:43;;;;;;;2.03;0.70;;;20.00;99.90;;;;;;5035674;28;20079;-81
2023/09/22 12:50:10;;;;;;;5.05;0.82;;;20.10;99.90;;;;;;5046505;28;20049;-81
2023/09/22 12:52:37;;;;;;;3.03;0.90;;;20.00;99.90;;;;;;5047377;28;20099;-81
2023/09/22 12:55:06;;;;;;;3.92;0.88;;;19.90;99.90;;;;;;5054389;28;20060;-82
2023/09/22 12:57:33;;;;;;;3.90;0.90;;;20.00;99.90;;;;;;5054552;28;20060;-82